createdAt,value
2022-11-28T00:01:39.081Z,4.18
2022-11-28T00:04:08.034Z,3.99
2022-11-28T00:06:38.382Z,4.32
2022-11-28T00:09:08.480Z,4.61
2022-11-28T00:11:37.100Z,4.01
2022-11-28T00:14:05.365Z,4.50
2022-11-28T00:16:33.832Z,4.05
2022-11-28T00:19:03.876Z,4.01
2022-11-28T00:21:32.281Z,4.31
2022-11-28T00:24:00.818Z,4.34
2022-11-28T00:26:32.713Z,4.00
2022-11-28T00:29:04.152Z,4.23
2022-11-28T00:31:35.673Z,4.23
2022-11-28T00:34:04.335Z,4.31
2022-11-28T00:36:32.387Z,4.05
2022-11-28T00:39:00.513Z,4.09
2022-11-28T00:41:31.494Z,4.37
2022-11-28T00:43:59.848Z,4.34
2022-11-28T00:46:28.406Z,4.43
2022-11-28T00:48:56.662Z,3.95
2022-11-28T00:51:27.131Z,4.37
2022-11-28T00:53:57.728Z,4.25
2022-11-28T00:56:27.756Z,4.32
2022-11-28T00:58:58.086Z,4.36
2022-11-28T01:01:28.910Z,4.18
2022-11-28T01:03:59.594Z,3.69
2022-11-28T01:06:29.829Z,4.06
2022-11-28T01:09:00.166Z,4.22
2022-11-28T01:11:29.413Z,3.97
2022-11-28T01:14:01.453Z,3.99
2022-11-28T01:16:30.598Z,3.86
2022-11-28T01:18:58.793Z,3.93
2022-11-28T01:21:27.170Z,4.20
2022-11-28T01:23:55.250Z,4.12
2022-11-28T01:26:25.011Z,4.29
2022-11-28T01:28:53.242Z,4.05
2022-11-28T01:31:24.356Z,4.26
2022-11-28T01:33:53.513Z,3.83
2022-11-28T01:36:23.137Z,3.52
2022-11-28T01:38:51.804Z,3.87
2022-11-28T01:41:25.278Z,3.70
2022-11-28T01:44:08.106Z,4.08
2022-11-28T01:46:38.074Z,3.96
2022-11-28T01:49:15.303Z,3.95
2022-11-28T01:51:47.776Z,3.55
2022-11-28T01:54:18.006Z,3.73
2022-11-28T01:56:51.268Z,3.62
2022-11-28T01:59:21.002Z,3.08
2022-11-28T02:01:53.439Z,3.25
2022-11-28T02:04:21.672Z,3.21
2022-11-28T02:06:50.054Z,3.27
2022-11-28T02:09:18.269Z,3.27
2022-11-28T02:12:07.656Z,3.85
2022-11-28T02:14:51.397Z,3.75
2022-11-28T02:17:36.032Z,3.51
2022-11-28T02:20:32.274Z,3.35
2022-11-28T02:23:08.697Z,3.16
2022-11-28T02:26:10.257Z,3.30
2022-11-28T02:29:00.377Z,3.43
2022-11-28T02:31:57.436Z,3.76
2022-11-28T02:34:33.282Z,3.46
2022-11-28T02:37:08.591Z,3.18
2022-11-28T02:39:46.456Z,3.32
2022-11-28T02:42:20.098Z,3.48
2022-11-28T02:44:56.714Z,3.35
2022-11-28T02:47:32.517Z,3.46
2022-11-28T02:50:06.454Z,3.27
2022-11-28T02:52:40.432Z,3.05
2022-11-28T02:55:10.108Z,3.18
2022-11-28T02:57:39.886Z,3.51
2022-11-28T03:00:29.421Z,2.92
2022-11-28T03:03:19.107Z,2.90
2022-11-28T03:05:53.093Z,2.94
2022-11-28T03:08:54.431Z,3.13
2022-11-28T03:11:36.033Z,2.82
2022-11-28T03:14:15.663Z,2.82
2022-11-28T03:16:49.337Z,2.70
2022-11-28T03:19:25.393Z,2.98
2022-11-28T03:22:04.061Z,2.83
2022-11-28T03:24:36.947Z,3.05
2022-11-28T03:27:09.811Z,2.71
2022-11-28T03:29:42.492Z,2.43
2022-11-28T03:32:15.559Z,2.80
2022-11-28T03:34:48.782Z,2.71
2022-11-28T03:37:21.368Z,2.62
2022-11-28T03:39:55.321Z,2.79
2022-11-28T03:42:25.939Z,2.19
2022-11-28T03:44:57.816Z,2.39
2022-11-28T03:47:31.407Z,2.64
2022-11-28T03:50:06.066Z,2.41
2022-11-28T03:52:38.117Z,2.77
2022-11-28T03:55:12.434Z,2.76
2022-11-28T03:57:46.328Z,2.68
2022-11-28T04:00:15.820Z,3.09
2022-11-28T04:02:54.047Z,2.57
2022-11-28T04:05:29.776Z,2.41
2022-11-28T04:08:04.860Z,2.33
2022-11-28T04:10:37.208Z,2.57
2022-11-28T04:13:13.969Z,2.65
2022-11-28T04:15:48.761Z,2.58
2022-11-28T04:18:22.445Z,2.55
2022-11-28T04:20:59.464Z,2.77
2022-11-28T04:23:29.410Z,2.60
2022-11-28T04:26:02.715Z,2.56
2022-11-28T04:28:34.996Z,3.00
2022-11-28T04:31:07.075Z,2.68
2022-11-28T04:33:39.170Z,2.83
2022-11-28T04:36:11.788Z,2.79
2022-11-28T04:38:43.107Z,3.12
2022-11-28T04:41:16.713Z,2.87
2022-11-28T04:43:49.066Z,2.52
2022-11-28T04:46:25.117Z,2.76
2022-11-28T04:48:53.313Z,3.19
2022-11-28T04:51:27.550Z,2.83
2022-11-28T04:54:02.551Z,2.89
2022-11-28T04:56:40.252Z,3.15
2022-11-28T04:59:10.029Z,2.94
2022-11-28T05:01:40.092Z,3.08
2022-11-28T05:04:08.862Z,2.85
2022-11-28T05:06:38.631Z,2.98
2022-11-28T05:09:06.961Z,2.90
2022-11-28T05:11:35.263Z,3.11
2022-11-28T05:14:03.502Z,2.99
2022-11-28T05:16:31.783Z,3.04
2022-11-28T05:19:00.209Z,3.29
2022-11-28T05:21:28.321Z,3.22
2022-11-28T05:23:57.866Z,2.96
2022-11-28T05:26:26.325Z,2.90
2022-11-28T05:28:54.652Z,2.89
2022-11-28T05:31:23.023Z,2.79
2022-11-28T05:33:51.456Z,2.79
2022-11-28T05:36:19.667Z,3.18
2022-11-28T05:38:48.506Z,3.51
2022-11-28T05:41:21.962Z,3.09
2022-11-28T05:43:50.068Z,3.25
2022-11-28T05:46:18.951Z,3.49
2022-11-28T05:48:47.694Z,3.46
2022-11-28T05:51:16.024Z,3.00
2022-11-28T05:53:44.549Z,3.62
2022-11-28T05:56:15.618Z,2.93
2022-11-28T05:58:46.208Z,3.68
2022-11-28T06:01:18.852Z,3.36
2022-11-28T06:03:48.092Z,3.23
2022-11-28T06:06:18.772Z,3.18
2022-11-28T06:08:47.958Z,3.47
2022-11-28T06:11:16.689Z,3.57
2022-11-28T06:13:48.224Z,3.64
2022-11-28T06:16:18.227Z,3.04
2022-11-28T06:18:46.382Z,3.27
2022-11-28T06:21:18.978Z,3.51
2022-11-28T06:23:47.101Z,3.80
2022-11-28T06:26:17.944Z,3.50
2022-11-28T06:28:47.671Z,2.87
2022-11-28T06:31:18.042Z,3.45
2022-11-28T06:33:46.683Z,3.21
2022-11-28T06:36:16.492Z,3.00
2022-11-28T06:38:45.234Z,3.43
2022-11-28T06:41:15.557Z,3.35
2022-11-28T06:43:44.131Z,3.18
2022-11-28T06:46:16.411Z,3.24
2022-11-28T06:48:47.082Z,3.96
2022-11-28T06:51:16.187Z,3.71
2022-11-28T06:53:44.698Z,3.62
2022-11-28T06:56:15.115Z,3.99
2022-11-28T06:58:44.037Z,3.65
2022-11-28T07:01:15.818Z,3.49
2022-11-28T07:03:44.746Z,3.38
2022-11-28T07:06:13.575Z,3.54
2022-11-28T07:08:42.333Z,3.61
2022-11-28T07:11:13.051Z,3.71
2022-11-28T07:13:42.256Z,4.01
2022-11-28T07:16:16.452Z,3.71
2022-11-28T07:18:44.942Z,3.61
2022-11-28T07:21:14.682Z,3.87
2022-11-28T07:23:47.270Z,3.60
2022-11-28T07:26:19.586Z,4.30
2022-11-28T07:28:49.213Z,4.13
2022-11-28T07:31:21.210Z,4.14
2022-11-28T07:33:51.767Z,4.41
2022-11-28T07:36:21.937Z,4.30
2022-11-28T07:38:51.089Z,4.06
2022-11-28T07:41:23.762Z,3.56
2022-11-28T07:43:56.562Z,3.63
2022-11-28T07:46:27.974Z,3.96
2022-11-28T07:48:56.649Z,3.72
2022-11-28T07:51:26.830Z,3.46
2022-11-28T07:53:56.473Z,3.95
2022-11-28T07:56:39.480Z,3.85
2022-11-28T07:59:16.489Z,4.16
2022-11-28T08:01:46.264Z,4.38
2022-11-28T08:04:16.674Z,3.84
2022-11-28T08:06:45.069Z,4.15
2022-11-28T08:09:14.711Z,3.83
2022-11-28T08:11:43.360Z,4.14
2022-11-28T08:14:11.605Z,4.50
2022-11-28T08:16:44.965Z,4.37
2022-11-28T08:19:15.012Z,4.61
2022-11-28T08:21:43.887Z,4.15
2022-11-28T08:24:13.238Z,4.59
2022-11-28T08:26:41.507Z,4.56
2022-11-28T08:29:11.004Z,4.42
2022-11-28T08:31:42.891Z,4.71
2022-11-28T08:34:12.795Z,4.31
2022-11-28T08:36:43.381Z,4.23
2022-11-28T08:39:27.788Z,4.69
2022-11-28T08:41:58.932Z,4.68
2022-11-28T08:44:30.376Z,4.12
2022-11-28T08:47:00.137Z,4.78
2022-11-28T08:49:30.636Z,4.42
2022-11-28T08:52:02.863Z,4.60
2022-11-28T08:54:31.498Z,4.61
2022-11-28T08:57:01.395Z,5.09
2022-11-28T08:59:29.809Z,4.77
2022-11-28T09:01:58.879Z,4.67
2022-11-28T09:04:26.958Z,4.98
2022-11-28T09:06:55.461Z,4.26
2022-11-28T09:09:31.452Z,4.41
2022-11-28T09:12:01.264Z,4.16
2022-11-28T09:14:29.397Z,4.55
2022-11-28T09:16:57.779Z,5.07
2022-11-28T09:19:28.580Z,4.49
2022-11-28T09:21:58.080Z,5.03
2022-11-28T09:24:28.158Z,4.83
2022-11-28T09:26:56.304Z,4.56
2022-11-28T09:29:24.339Z,5.25
2022-11-28T09:31:52.511Z,4.72
2022-11-28T09:34:21.359Z,5.25
2022-11-28T09:36:50.217Z,5.59
2022-11-28T09:39:19.005Z,5.42
2022-11-28T09:42:03.660Z,4.81
2022-11-28T09:44:38.825Z,5.33
2022-11-28T09:47:14.813Z,4.86
2022-11-28T09:49:48.596Z,5.64
2022-11-28T09:52:27.885Z,5.42
2022-11-28T09:55:10.980Z,5.56
2022-11-28T09:57:45.293Z,5.86
2022-11-28T10:00:18.821Z,5.76
2022-11-28T10:03:03.226Z,5.11
2022-11-28T10:05:38.833Z,6.50
2022-11-28T10:08:25.803Z,6.37
2022-11-28T10:11:01.855Z,5.58
2022-11-28T10:14:06.656Z,5.92
2022-11-28T10:16:43.165Z,5.73
2022-11-28T10:19:46.049Z,5.90
2022-11-28T10:22:14.640Z,6.12
2022-11-28T10:24:48.005Z,5.92
2022-11-28T10:27:21.306Z,6.08
2022-11-28T10:30:01.229Z,5.48
2022-11-28T10:32:35.664Z,5.48
2022-11-28T10:35:07.473Z,5.02
2022-11-28T10:37:37.956Z,5.61
2022-11-28T10:40:19.134Z,6.21
2022-11-28T10:42:52.527Z,5.16
2022-11-28T10:45:28.859Z,4.86
2022-11-28T10:48:39.133Z,5.34
2022-11-28T10:51:19.937Z,5.14
2022-11-28T10:54:01.512Z,5.17
2022-11-28T10:56:38.796Z,5.60
2022-11-28T10:59:18.735Z,4.62
2022-11-28T11:01:51.130Z,5.51
2022-11-28T11:04:23.029Z,5.60
2022-11-28T11:07:16.145Z,5.51
2022-11-28T11:09:46.553Z,5.69
2022-11-28T11:12:21.363Z,5.65
2022-11-28T11:14:49.602Z,5.06
2022-11-28T11:17:36.711Z,5.10
2022-11-28T11:20:28.194Z,5.23
2022-11-28T11:22:57.221Z,5.61
2022-11-28T11:25:26.653Z,5.37
2022-11-28T11:27:57.383Z,5.60
2022-11-28T11:30:29.161Z,5.96
2022-11-28T11:33:00.726Z,5.30
2022-11-28T11:35:30.794Z,5.10
2022-11-28T11:38:19.160Z,5.19
2022-11-28T11:40:47.898Z,4.66
2022-11-28T11:43:27.952Z,5.57
2022-11-28T11:46:08.494Z,5.32
2022-11-28T11:48:41.119Z,5.36
2022-11-28T11:51:22.977Z,5.27
2022-11-28T11:54:03.340Z,5.42
2022-11-28T11:56:35.634Z,5.01
2022-11-28T11:59:11.731Z,4.95
2022-11-28T12:01:41.633Z,5.05
2022-11-28T12:04:43.756Z,5.02
2022-11-28T12:07:21.369Z,4.74
2022-11-28T12:09:54.657Z,5.13
2022-11-28T12:12:26.667Z,4.99
2022-11-28T12:14:54.991Z,4.65
2022-11-28T12:20:44.189Z,5.20
2022-11-28T12:23:34.812Z,4.80
2022-11-28T12:26:15.558Z,5.12
2022-11-28T12:28:55.893Z,5.07
2022-11-28T12:31:32.796Z,4.99
2022-11-28T12:34:13.523Z,5.00
2022-11-28T12:36:53.636Z,4.49
2022-11-28T12:39:37.416Z,5.20
2022-11-28T12:42:28.688Z,5.16
2022-11-28T12:45:17.120Z,4.70
2022-11-28T12:47:57.680Z,4.95
2022-11-28T12:50:35.349Z,5.10
2022-11-28T12:53:27.409Z,5.38
2022-11-28T12:56:02.319Z,5.42
2022-11-28T12:58:35.067Z,4.61
2022-11-28T13:01:14.981Z,5.33
2022-11-28T13:04:01.179Z,4.95
2022-11-28T13:06:39.261Z,4.96
2022-11-28T13:09:26.437Z,5.21
2022-11-28T13:12:04.508Z,5.04
2022-11-28T13:14:43.958Z,5.26
2022-11-28T13:17:23.726Z,4.76
2022-11-28T13:20:00.505Z,5.09
2022-11-28T13:22:39.380Z,5.20
2022-11-28T13:25:20.969Z,4.74
2022-11-28T13:27:59.773Z,5.24
2022-11-28T13:30:36.280Z,5.52
2022-11-28T13:33:13.611Z,4.97
2022-11-28T13:35:43.800Z,4.78
2022-11-28T13:38:36.930Z,4.70
2022-11-28T13:41:28.818Z,4.83
2022-11-28T13:44:05.389Z,4.69
2022-11-28T13:46:35.030Z,4.81
2022-11-28T13:49:14.731Z,4.64
2022-11-28T13:51:43.577Z,4.85
2022-11-28T13:54:43.005Z,4.40
2022-11-28T13:57:21.975Z,4.47
2022-11-28T13:59:57.705Z,4.59
2022-11-28T14:02:37.370Z,4.84
2022-11-28T14:05:18.735Z,4.46
2022-11-28T14:07:52.027Z,4.28
2022-11-28T14:10:35.441Z,4.54
2022-11-28T14:13:25.393Z,4.43
2022-11-28T14:16:07.836Z,4.50
2022-11-28T14:18:58.108Z,4.59
2022-11-28T14:21:40.181Z,4.86
2022-11-28T14:24:17.949Z,4.58
2022-11-28T14:26:47.320Z,4.83
2022-11-28T14:29:34.158Z,4.76
2022-11-28T14:34:51.319Z,4.49
2022-11-28T14:37:52.107Z,4.81
2022-11-28T14:40:56.680Z,4.75
2022-11-28T14:43:28.472Z,4.60
2022-11-28T14:46:32.047Z,4.74
2022-11-28T14:49:21.785Z,4.89
2022-11-28T14:52:39.095Z,4.42
2022-11-28T14:55:22.216Z,4.68
2022-11-28T14:58:00.022Z,4.44
2022-11-28T15:00:32.602Z,4.47
2022-11-28T15:03:17.853Z,4.51
2022-11-28T15:05:51.031Z,4.70
2022-11-28T15:08:47.413Z,4.55
2022-11-28T15:11:26.469Z,4.57
2022-11-28T15:14:08.949Z,4.57
2022-11-28T15:16:45.216Z,4.86
2022-11-28T15:19:27.087Z,4.58
2022-11-28T15:21:57.832Z,4.75
2022-11-28T15:24:30.441Z,4.69
2022-11-28T15:27:17.562Z,4.49
2022-11-28T15:29:54.807Z,5.02
2022-11-28T15:32:24.000Z,4.93
2022-11-28T15:35:01.216Z,4.29
2022-11-28T15:37:32.333Z,4.77
2022-11-28T15:40:03.742Z,5.03
2022-11-28T15:42:34.373Z,5.19
2022-11-28T15:45:09.703Z,5.15
2022-11-28T15:47:39.522Z,4.68
2022-11-28T15:50:20.149Z,4.50
2022-11-28T15:53:01.344Z,4.76
2022-11-28T15:55:32.653Z,4.63
2022-11-28T15:58:19.152Z,4.73
2022-11-28T16:00:51.890Z,4.41
2022-11-28T16:03:24.192Z,4.75
2022-11-28T16:05:56.030Z,4.65
2022-11-28T16:08:30.382Z,4.79
2022-11-28T16:10:59.460Z,4.84
2022-11-28T16:13:31.488Z,4.81
2022-11-28T16:16:01.547Z,5.04
2022-11-28T16:18:31.104Z,4.96
2022-11-28T16:21:02.295Z,4.78
2022-11-28T16:23:34.596Z,5.05
2022-11-28T16:26:04.830Z,4.49
2022-11-28T16:28:34.646Z,4.47
2022-11-28T16:31:03.190Z,4.89
2022-11-28T16:33:42.552Z,4.75
2022-11-28T16:36:32.009Z,4.50
2022-11-28T16:39:09.303Z,4.87
2022-11-28T16:41:38.386Z,4.78
2022-11-28T16:44:08.590Z,4.63
2022-11-28T16:46:39.844Z,4.65
2022-11-28T16:49:17.575Z,4.74
2022-11-28T16:51:47.868Z,4.40
2022-11-28T16:54:31.514Z,5.10
2022-11-28T16:57:11.256Z,5.09
2022-11-28T16:59:39.359Z,4.96
2022-11-28T17:02:15.654Z,4.66
2022-11-28T17:04:45.030Z,5.04
2022-11-28T17:07:16.770Z,4.62
2022-11-28T17:09:46.711Z,4.78
2022-11-28T17:12:22.950Z,4.63
2022-11-28T17:14:51.277Z,4.58
2022-11-28T17:17:23.217Z,4.90
2022-11-28T17:19:52.005Z,4.67
2022-11-28T17:22:24.880Z,4.79
2022-11-28T17:24:59.037Z,4.65
2022-11-28T17:27:27.381Z,4.31
2022-11-28T17:29:55.502Z,4.63
2022-11-28T17:32:24.078Z,4.94
2022-11-28T17:34:53.567Z,4.42
2022-11-28T17:37:23.045Z,4.58
2022-11-28T17:40:07.383Z,5.13
2022-11-28T17:42:35.447Z,4.77
2022-11-28T17:45:03.631Z,5.15
2022-11-28T17:47:31.844Z,4.90
2022-11-28T17:50:00.170Z,5.06
2022-11-28T17:52:31.008Z,4.36
2022-11-28T17:55:06.860Z,4.43
2022-11-28T17:57:36.421Z,4.72
2022-11-28T18:00:06.621Z,4.74
2022-11-28T18:02:42.136Z,4.86
2022-11-28T18:05:10.985Z,4.85
2022-11-28T18:07:42.291Z,4.69
2022-11-28T18:10:12.848Z,4.78
2022-11-28T18:12:40.914Z,4.83
2022-11-28T18:15:11.478Z,4.89
2022-11-28T18:17:39.978Z,4.50
2022-11-28T18:20:10.047Z,5.00
2022-11-28T18:22:38.664Z,4.77
2022-11-28T18:25:09.839Z,4.70
2022-11-28T18:27:38.494Z,4.63
2022-11-28T18:30:08.769Z,4.86
2022-11-28T18:32:37.092Z,4.80
2022-11-28T18:35:05.659Z,5.07
2022-11-28T18:37:33.698Z,4.98
2022-11-28T18:40:06.293Z,4.66
2022-11-28T18:42:38.466Z,4.79
2022-11-28T18:45:07.837Z,4.96
2022-11-28T18:47:36.057Z,4.84
2022-11-28T18:50:04.502Z,4.46
2022-11-28T18:52:32.725Z,5.24
2022-11-28T18:55:00.733Z,5.07
2022-11-28T18:57:32.817Z,4.74
2022-11-28T19:00:02.938Z,5.22
2022-11-28T19:02:33.151Z,4.75
2022-11-28T19:05:01.729Z,4.93
2022-11-28T19:07:30.353Z,4.75
2022-11-28T19:10:01.866Z,4.92
2022-11-28T19:12:30.076Z,4.88
2022-11-28T19:15:02.722Z,5.25
2022-11-28T19:17:34.908Z,4.93
2022-11-28T19:20:05.744Z,5.15
2022-11-28T19:22:36.011Z,4.85
2022-11-28T19:25:04.350Z,4.82
2022-11-28T19:27:32.432Z,4.96
2022-11-28T19:30:00.872Z,4.98
2022-11-28T19:32:32.658Z,4.55
2022-11-28T19:35:00.994Z,4.99
2022-11-28T19:37:29.229Z,4.80
2022-11-28T19:40:02.186Z,5.03
2022-11-28T19:42:31.472Z,4.80
2022-11-28T19:44:59.720Z,5.02
2022-11-28T19:47:28.679Z,5.08
2022-11-28T19:49:58.128Z,5.12
2022-11-28T19:52:26.292Z,5.12
2022-11-28T19:54:54.585Z,5.15
2022-11-28T19:57:24.077Z,5.12
2022-11-28T19:59:53.724Z,4.94
2022-11-28T20:02:23.511Z,5.16
2022-11-28T20:04:52.226Z,5.12
2022-11-28T20:07:22.289Z,5.33
2022-11-28T20:09:50.818Z,4.94
2022-11-28T20:12:19.160Z,4.75
2022-11-28T20:14:47.289Z,5.28
2022-11-28T20:17:16.227Z,5.27
2022-11-28T20:19:46.026Z,5.42
2022-11-28T20:22:14.617Z,5.28
2022-11-28T20:24:44.196Z,5.56
2022-11-28T20:27:12.419Z,5.62
2022-11-28T20:29:40.607Z,5.50
2022-11-28T20:32:10.141Z,5.39
2022-11-28T20:34:44.238Z,5.21
2022-11-28T20:37:12.664Z,5.39
2022-11-28T20:39:41.118Z,5.38
2022-11-28T20:42:10.837Z,5.67
2022-11-28T20:44:39.075Z,5.74
2022-11-28T20:47:08.266Z,5.58
2022-11-28T20:49:36.481Z,5.42
2022-11-28T20:52:04.930Z,4.92
2022-11-28T20:54:33.329Z,5.18
2022-11-28T20:59:52.494Z,5.43
2022-11-28T21:02:20.685Z,4.94
2022-11-28T21:04:48.839Z,4.96
2022-11-28T21:07:18.572Z,5.05
2022-11-28T21:09:47.055Z,5.41
2022-11-28T21:12:20.659Z,4.96
2022-11-28T21:14:49.153Z,5.38
2022-11-28T21:17:18.504Z,5.16
2022-11-28T21:19:47.056Z,5.08
2022-11-28T21:22:15.060Z,5.19
2022-11-28T21:24:44.942Z,4.92
2022-11-28T21:27:12.985Z,5.09
2022-11-28T21:29:43.013Z,5.02
2022-11-28T21:32:13.654Z,5.03
2022-11-28T21:34:45.957Z,4.97
2022-11-28T21:37:16.441Z,5.19
2022-11-28T21:39:44.766Z,5.15
2022-11-28T21:42:18.928Z,5.18
2022-11-28T21:44:48.996Z,5.33
2022-11-28T21:47:16.962Z,4.85
2022-11-28T21:49:46.718Z,5.33
2022-11-28T21:52:16.591Z,5.39
2022-11-28T21:54:45.732Z,5.12
2022-11-28T21:57:16.413Z,5.10
2022-11-28T21:59:44.948Z,5.24
2022-11-28T22:02:15.849Z,5.39
2022-11-28T22:04:44.631Z,5.35
2022-11-28T22:07:15.053Z,5.24
2022-11-28T22:09:43.441Z,5.34
2022-11-28T22:12:11.378Z,5.56
2022-11-28T22:14:39.486Z,5.98
2022-11-28T22:17:07.656Z,5.55
2022-11-28T22:19:35.935Z,5.60
2022-11-28T22:22:04.309Z,5.72
2022-11-28T22:24:34.563Z,6.12
2022-11-28T22:27:05.635Z,5.32
2022-11-28T22:29:36.967Z,5.71
2022-11-28T22:32:05.717Z,5.52
2022-11-28T22:34:39.480Z,5.75
2022-11-28T22:37:08.838Z,5.53
2022-11-28T22:39:39.489Z,5.92
2022-11-28T22:42:07.772Z,5.48
2022-11-28T22:44:35.818Z,5.50
2022-11-28T22:47:03.918Z,5.58
2022-11-28T22:49:31.957Z,5.44
2022-11-28T22:52:00.270Z,5.78
2022-11-28T22:54:28.811Z,5.07
2022-11-28T22:56:58.235Z,5.27
2022-11-28T22:59:27.027Z,5.01
2022-11-28T23:01:55.412Z,5.17
2022-11-28T23:04:23.587Z,5.04
2022-11-28T23:06:52.443Z,4.63
2022-11-28T23:09:21.175Z,4.65
2022-11-28T23:11:50.004Z,4.71
2022-11-28T23:14:20.506Z,4.74
2022-11-28T23:16:49.607Z,4.48
2022-11-28T23:19:20.111Z,4.60
2022-11-28T23:21:49.576Z,4.53
2022-11-28T23:24:19.864Z,4.50
2022-11-28T23:26:48.524Z,4.39
2022-11-28T23:29:17.052Z,4.80
2022-11-28T23:31:49.788Z,4.20
2022-11-28T23:34:18.023Z,4.55
2022-11-28T23:36:47.850Z,4.34
2022-11-28T23:39:17.800Z,4.79
2022-11-28T23:41:46.539Z,4.65
2022-11-28T23:44:16.490Z,4.78
2022-11-28T23:46:48.274Z,4.51
2022-11-28T23:49:18.359Z,4.65
2022-11-28T23:51:46.396Z,4.22
2022-11-28T23:54:14.616Z,4.32
2022-11-28T23:56:45.914Z,4.41
2022-11-28T23:59:16.509Z,4.74
